FFT1406 KONT-KDFW
Flight info
| Callsign | FFT1406 |
|---|---|
| Flight time | N/A |
| Altitude | 35000 |
| Route | RAJEE4 AVRRY LANCY J78 ABQ J72 TXO TURKI VKTRY2 |
| Aircraft | A21N/M-SDE2E3FGHIJ1RWXY/LB1 |
Departure
| Time | 2026-05-04 21:11 |
|---|---|
| Airport | Ontario International Airport (KONT) |
Arrival
| Time | N/A |
|---|---|
| Airport | Dallas Fort Worth International Airport (KDFW) |
| Time | Latitude | Longitude | Altitude | Speed | Heading |
|---|---|---|---|---|---|
| 2026-05-04 20:46 | 34.05989 | -117.59575 | 938 ft | 0 kts | 22° |
| 2026-05-04 21:03 | 34.05987 | -117.59581 | 939 ft | 4 kts | 333° |
| 2026-05-04 21:03 | 34.05977 | -117.59572 | 938 ft | 4 kts | 345° |
| 2026-05-04 21:04 | 34.05955 | -117.59570 | 938 ft | 2 kts | 0° |
| 2026-05-04 21:04 | 34.05931 | -117.59575 | 941 ft | 4 kts | 30° |
| 2026-05-04 21:04 | 34.05910 | -117.59595 | 939 ft | 3 kts | 43° |
| 2026-05-04 21:04 | 34.05904 | -117.59602 | 938 ft | 0 kts | 43° |
| 2026-05-04 21:07 | 34.05909 | -117.59595 | 938 ft | 3 kts | 53° |
| 2026-05-04 21:07 | 34.05914 | -117.59546 | 938 ft | 8 kts | 94° |
| 2026-05-04 21:07 | 34.05909 | -117.59475 | 937 ft | 10 kts | 94° |
| 2026-05-04 21:08 | 34.05904 | -117.59386 | 937 ft | 12 kts | 94° |
| 2026-05-04 21:08 | 34.05898 | -117.59281 | 937 ft | 14 kts | 94° |
| 2026-05-04 21:08 | 34.05894 | -117.59158 | 938 ft | 15 kts | 90° |
| 2026-05-04 21:08 | 34.05894 | -117.59024 | 936 ft | 17 kts | 90° |
| 2026-05-04 21:09 | 34.05896 | -117.58876 | 936 ft | 18 kts | 89° |
| 2026-05-04 21:09 | 34.05899 | -117.58714 | 936 ft | 20 kts | 89° |
| 2026-05-04 21:09 | 34.05902 | -117.58549 | 935 ft | 19 kts | 90° |
| 2026-05-04 21:09 | 34.05900 | -117.58381 | 935 ft | 20 kts | 91° |
| 2026-05-04 21:10 | 34.05886 | -117.58286 | 935 ft | 11 kts | 139° |
| 2026-05-04 21:10 | 34.05811 | -117.58270 | 935 ft | 12 kts | 181° |
| 2026-05-04 21:10 | 34.05732 | -117.58272 | 935 ft | 6 kts | 184° |
| 2026-05-04 21:10 | 34.05694 | -117.58309 | 936 ft | 9 kts | 253° |
| 2026-05-04 21:11 | 34.05688 | -117.58478 | 940 ft | 52 kts | 270° |
| 2026-05-04 21:11 | 34.05687 | -117.59246 | 937 ft | 125 kts | 269° |
| 2026-05-04 21:11 | 34.05686 | -117.60479 | 946 ft | 167 kts | 269° |
| 2026-05-04 21:11 | 34.05702 | -117.61830 | 1556 ft | 158 kts | 269° |
| 2026-05-04 21:12 | 34.05563 | -117.63139 | 2110 ft | 159 kts | 248° |
| 2026-05-04 21:12 | 34.05172 | -117.63919 | 2404 ft | 175 kts | 229° |
| 2026-05-04 21:12 | 34.04075 | -117.64729 | 2918 ft | 202 kts | 199° |
| 2026-05-04 21:12 | 34.02620 | -117.64775 | 3666 ft | 217 kts | 171° |
| 2026-05-04 21:13 | 34.01250 | -117.63965 | 4359 ft | 228 kts | 141° |
| 2026-05-04 21:13 | 34.00156 | -117.62422 | 4710 ft | 258 kts | 130° |
| 2026-05-04 21:13 | 33.99013 | -117.60638 | 5200 ft | 278 kts | 129° |
| 2026-05-04 21:13 | 33.97713 | -117.58895 | 6006 ft | 280 kts | 139° |
| 2026-05-04 21:14 | 33.96231 | -117.57364 | 6627 ft | 282 kts | 142° |
| 2026-05-04 21:14 | 33.94712 | -117.55861 | 6964 ft | 284 kts | 143° |
| 2026-05-04 21:14 | 33.93186 | -117.54362 | 7019 ft | 284 kts | 143° |
| 2026-05-04 21:14 | 33.91650 | -117.52880 | 7017 ft | 283 kts | 145° |
| 2026-05-04 21:15 | 33.90044 | -117.51510 | 6997 ft | 283 kts | 147° |
| 2026-05-04 21:15 | 33.88429 | -117.50166 | 6992 ft | 282 kts | 147° |
| 2026-05-04 21:15 | 33.86811 | -117.48820 | 6994 ft | 283 kts | 147° |
| 2026-05-04 21:15 | 33.85195 | -117.47472 | 6992 ft | 282 kts | 147° |
| 2026-05-04 21:16 | 33.83581 | -117.46123 | 6996 ft | 283 kts | 147° |
| 2026-05-04 21:16 | 33.81968 | -117.44772 | 6998 ft | 282 kts | 147° |
| 2026-05-04 21:16 | 33.80359 | -117.43424 | 6994 ft | 282 kts | 147° |
| 2026-05-04 21:16 | 33.78749 | -117.42075 | 7113 ft | 281 kts | 147° |
| 2026-05-04 21:17 | 33.77135 | -117.40722 | 7879 ft | 285 kts | 147° |
| 2026-05-04 21:17 | 33.75498 | -117.39354 | 8747 ft | 288 kts | 147° |
| 2026-05-04 21:17 | 33.73849 | -117.37972 | 9589 ft | 291 kts | 147° |
| 2026-05-04 21:17 | 33.72252 | -117.36442 | 10329 ft | 302 kts | 137° |
| 2026-05-04 21:18 | 33.71032 | -117.34284 | 10690 ft | 328 kts | 115° |
| 2026-05-04 21:18 | 33.70502 | -117.31537 | 11120 ft | 348 kts | 99° |
| 2026-05-04 21:18 | 33.70272 | -117.28652 | 11773 ft | 355 kts | 97° |
| 2026-05-04 21:18 | 33.70054 | -117.25679 | 12490 ft | 360 kts | 98° |
| 2026-05-04 21:19 | 33.69808 | -117.22659 | 13201 ft | 366 kts | 99° |
| 2026-05-04 21:19 | 33.69537 | -117.19603 | 13900 ft | 371 kts | 100° |
| 2026-05-04 21:19 | 33.69247 | -117.16506 | 14586 ft | 376 kts | 100° |
| 2026-05-04 21:19 | 33.68937 | -117.13364 | 15243 ft | 382 kts | 101° |
| 2026-05-04 21:20 | 33.68626 | -117.10173 | 15893 ft | 388 kts | 101° |
| 2026-05-04 21:20 | 33.68314 | -117.06943 | 16548 ft | 392 kts | 101° |
| 2026-05-04 21:20 | 33.67993 | -117.03669 | 17187 ft | 397 kts | 101° |
| 2026-05-04 21:20 | 33.67668 | -117.00355 | 17815 ft | 401 kts | 101° |
| 2026-05-04 21:21 | 33.67340 | -116.97007 | 18401 ft | 407 kts | 101° |
| 2026-05-04 21:21 | 33.67009 | -116.93619 | 18971 ft | 412 kts | 102° |
| 2026-05-04 21:21 | 33.66666 | -116.90184 | 19544 ft | 417 kts | 102° |
| 2026-05-04 21:21 | 33.66320 | -116.86707 | 20117 ft | 422 kts | 102° |
| 2026-05-04 21:22 | 33.65979 | -116.83187 | 20680 ft | 426 kts | 103° |
| 2026-05-04 21:22 | 33.65637 | -116.79636 | 21208 ft | 431 kts | 102° |
| 2026-05-04 21:22 | 33.65299 | -116.76052 | 21728 ft | 436 kts | 102° |
| 2026-05-04 21:22 | 33.64954 | -116.72418 | 22219 ft | 441 kts | 103° |
| 2026-05-04 21:23 | 33.64598 | -116.68746 | 22686 ft | 445 kts | 103° |
| 2026-05-04 21:23 | 33.64235 | -116.65048 | 23140 ft | 448 kts | 103° |
| 2026-05-04 21:23 | 33.63864 | -116.61324 | 23613 ft | 451 kts | 104° |
| 2026-05-04 21:23 | 33.63490 | -116.57568 | 24086 ft | 456 kts | 104° |
| 2026-05-04 21:24 | 33.63112 | -116.53776 | 24528 ft | 459 kts | 104° |
| 2026-05-04 21:24 | 33.62730 | -116.49959 | 24957 ft | 462 kts | 104° |
| 2026-05-04 21:24 | 33.62339 | -116.46116 | 25402 ft | 465 kts | 105° |
| 2026-05-04 21:24 | 33.61938 | -116.42249 | 25845 ft | 468 kts | 105° |
| 2026-05-04 21:25 | 33.61532 | -116.38362 | 26262 ft | 471 kts | 105° |
| 2026-05-04 21:25 | 33.61147 | -116.34443 | 26653 ft | 475 kts | 104° |
| 2026-05-04 21:25 | 33.60954 | -116.30453 | 27050 ft | 482 kts | 99° |
| 2026-05-04 21:25 | 33.60865 | -116.26430 | 27460 ft | 483 kts | 99° |
| 2026-05-04 21:26 | 33.60777 | -116.22390 | 27821 ft | 486 kts | 100° |
| 2026-05-04 21:26 | 33.60673 | -116.18383 | 28159 ft | 488 kts | 100° |
| 2026-05-04 21:26 | 33.60563 | -116.14300 | 28487 ft | 491 kts | 100° |
| 2026-05-04 21:26 | 33.60454 | -116.10194 | 28826 ft | 493 kts | 100° |
| 2026-05-04 21:27 | 33.60411 | -116.06057 | 29163 ft | 502 kts | 95° |
| 2026-05-04 21:27 | 33.60994 | -116.01877 | 29487 ft | 518 kts | 79° |
| 2026-05-04 21:27 | 33.62224 | -115.97778 | 29803 ft | 525 kts | 73° |
| 2026-05-04 21:27 | 33.63572 | -115.93696 | 30099 ft | 528 kts | 73° |
| 2026-05-04 21:28 | 33.64933 | -115.89595 | 30385 ft | 530 kts | 73° |
| 2026-05-04 21:28 | 33.66278 | -115.85458 | 30613 ft | 533 kts | 74° |
| 2026-05-04 21:28 | 33.67600 | -115.81283 | 30818 ft | 537 kts | 74° |
| 2026-05-04 21:28 | 33.68924 | -115.77080 | 31027 ft | 541 kts | 74° |
| 2026-05-04 21:29 | 33.70254 | -115.72850 | 31317 ft | 542 kts | 74° |
| 2026-05-04 21:29 | 33.71586 | -115.68605 | 31620 ft | 544 kts | 74° |
| 2026-05-04 21:29 | 33.72912 | -115.64343 | 31867 ft | 546 kts | 74° |
| 2026-05-04 21:29 | 33.74249 | -115.60059 | 32075 ft | 549 kts | 74° |
| 2026-05-04 21:30 | 33.75653 | -115.55782 | 32313 ft | 552 kts | 71° |
| 2026-05-04 21:30 | 33.77165 | -115.51538 | 32566 ft | 554 kts | 70° |
| 2026-05-04 21:30 | 33.78689 | -115.47279 | 32825 ft | 555 kts | 70° |
| 2026-05-04 21:30 | 33.80214 | -115.43006 | 33026 ft | 557 kts | 70° |
| 2026-05-04 21:31 | 33.83264 | -115.34417 | 33460 ft | 560 kts | 70° |
| 2026-05-04 21:31 | 33.84793 | -115.30096 | 33665 ft | 562 kts | 70° |
| 2026-05-04 21:31 | 33.86321 | -115.25760 | 33918 ft | 563 kts | 70° |
| 2026-05-04 21:32 | 33.87838 | -115.21423 | 34137 ft | 564 kts | 70° |
| 2026-05-04 21:32 | 33.89364 | -115.17071 | 34334 ft | 565 kts | 70° |
| 2026-05-04 21:32 | 33.90900 | -115.12717 | 34564 ft | 565 kts | 70° |
| 2026-05-04 21:32 | 33.92443 | -115.08364 | 34778 ft | 565 kts | 70° |
| 2026-05-04 21:33 | 33.93956 | -115.04067 | 34956 ft | 563 kts | 70° |
| 2026-05-04 21:33 | 33.97006 | -114.95397 | 34963 ft | 561 kts | 70° |
| 2026-05-04 21:34 | 34.00026 | -114.86745 | 34933 ft | 560 kts | 70° |
| 2026-05-04 21:34 | 34.03042 | -114.78076 | 34934 ft | 561 kts | 70° |
| 2026-05-04 21:35 | 34.06063 | -114.69399 | 34929 ft | 561 kts | 70° |
| 2026-05-04 21:35 | 34.09076 | -114.60706 | 34929 ft | 561 kts | 70° |
| 2026-05-04 21:36 | 34.12079 | -114.52012 | 34922 ft | 562 kts | 69° |
| 2026-05-04 21:36 | 34.15078 | -114.43291 | 34924 ft | 563 kts | 69° |
| 2026-05-04 21:37 | 34.18080 | -114.34558 | 34912 ft | 563 kts | 69° |
| 2026-05-04 21:37 | 34.21076 | -114.25842 | 34918 ft | 562 kts | 69° |
| 2026-05-04 21:38 | 34.24064 | -114.17119 | 34920 ft | 562 kts | 69° |
| 2026-05-04 21:38 | 34.26984 | -114.08365 | 34918 ft | 561 kts | 73° |
| 2026-05-04 21:39 | 34.29483 | -113.99421 | 34932 ft | 561 kts | 74° |
| 2026-05-04 21:39 | 34.31941 | -113.90474 | 34924 ft | 561 kts | 74° |
| 2026-05-04 21:40 | 34.34392 | -113.81595 | 34929 ft | 560 kts | 74° |
| 2026-05-04 21:40 | 34.36852 | -113.72652 | 34944 ft | 560 kts | 74° |
| 2026-05-04 21:41 | 34.39303 | -113.63705 | 34944 ft | 560 kts | 74° |
| 2026-05-04 21:41 | 34.41734 | -113.54764 | 34953 ft | 559 kts | 74° |
| 2026-05-04 21:42 | 34.44165 | -113.45819 | 34956 ft | 559 kts | 74° |
| 2026-05-04 21:42 | 34.46602 | -113.36863 | 34973 ft | 562 kts | 74° |
| 2026-05-04 21:43 | 34.49049 | -113.27774 | 35005 ft | 571 kts | 75° |
| 2026-05-04 21:43 | 34.51497 | -113.18634 | 35015 ft | 571 kts | 74° |
| 2026-05-04 21:44 | 34.53969 | -113.09483 | 35011 ft | 571 kts | 74° |
| 2026-05-04 21:44 | 34.56421 | -113.00323 | 35020 ft | 571 kts | 74° |
| 2026-05-04 21:45 | 34.58865 | -112.91171 | 35022 ft | 570 kts | 73° |
| 2026-05-04 21:45 | 34.61296 | -112.82006 | 35017 ft | 571 kts | 74° |
| 2026-05-04 21:46 | 34.63723 | -112.72841 | 35040 ft | 569 kts | 74° |
| 2026-05-04 21:46 | 34.66122 | -112.63750 | 35053 ft | 569 kts | 74° |
| 2026-05-04 21:47 | 34.68535 | -112.54598 | 35054 ft | 569 kts | 74° |
| 2026-05-04 21:47 | 34.70519 | -112.45329 | 35055 ft | 565 kts | 86° |
| 2026-05-04 21:48 | 34.71400 | -112.35868 | 35066 ft | 563 kts | 88° |
| 2026-05-04 21:48 | 34.72240 | -112.26404 | 35055 ft | 563 kts | 88° |
| 2026-05-04 21:49 | 34.73100 | -112.16933 | 35033 ft | 564 kts | 88° |
| 2026-05-04 21:49 | 34.73955 | -112.07465 | 35003 ft | 563 kts | 88° |
| 2026-05-04 21:50 | 34.74795 | -111.98003 | 35004 ft | 563 kts | 88° |
| 2026-05-04 21:50 | 34.75630 | -111.88542 | 35007 ft | 564 kts | 87° |
| 2026-05-04 21:51 | 34.76463 | -111.79061 | 35024 ft | 563 kts | 87° |
| 2026-05-04 21:51 | 34.77277 | -111.69605 | 35036 ft | 562 kts | 87° |
| 2026-05-04 21:52 | 34.78095 | -111.60146 | 35039 ft | 562 kts | 87° |
| 2026-05-04 21:52 | 34.78913 | -111.50675 | 35042 ft | 563 kts | 87° |
| 2026-05-04 21:53 | 34.79712 | -111.41194 | 35041 ft | 563 kts | 87° |
| 2026-05-04 21:53 | 34.80504 | -111.31736 | 35040 ft | 562 kts | 87° |
| 2026-05-04 21:54 | 34.81288 | -111.22275 | 35058 ft | 562 kts | 87° |
| 2026-05-04 21:54 | 34.82057 | -111.12808 | 35069 ft | 562 kts | 87° |
| 2026-05-04 21:55 | 34.82830 | -111.03343 | 35054 ft | 562 kts | 87° |
| 2026-05-04 21:55 | 34.83593 | -110.93879 | 35034 ft | 562 kts | 87° |
| 2026-05-04 21:56 | 34.84345 | -110.84483 | 35024 ft | 562 kts | 87° |
| 2026-05-04 21:56 | 34.85100 | -110.75015 | 35017 ft | 561 kts | 87° |
| 2026-05-04 21:57 | 34.85835 | -110.65554 | 35014 ft | 561 kts | 87° |
| 2026-05-04 21:57 | 34.86572 | -110.56090 | 35007 ft | 562 kts | 87° |
| 2026-05-04 21:58 | 34.87295 | -110.46628 | 35022 ft | 562 kts | 87° |
| 2026-05-04 21:58 | 34.88014 | -110.37153 | 35026 ft | 562 kts | 87° |
| 2026-05-04 21:59 | 34.88719 | -110.27679 | 35030 ft | 562 kts | 87° |
| 2026-05-04 21:59 | 34.89419 | -110.18201 | 35036 ft | 561 kts | 87° |
| 2026-05-04 22:00 | 34.90117 | -110.08732 | 35040 ft | 561 kts | 87° |
| 2026-05-04 22:00 | 34.90807 | -109.99274 | 35051 ft | 561 kts | 87° |
| 2026-05-04 22:01 | 34.91485 | -109.89800 | 35043 ft | 561 kts | 86° |
| 2026-05-04 22:01 | 34.92162 | -109.80319 | 35041 ft | 562 kts | 86° |
| 2026-05-04 22:02 | 34.92718 | -109.72427 | 35038 ft | 562 kts | 86° |
| 2026-05-04 22:02 | 34.93376 | -109.62948 | 35039 ft | 562 kts | 86° |
| 2026-05-04 22:03 | 34.94028 | -109.53457 | 35043 ft | 562 kts | 87° |
| 2026-05-04 22:03 | 34.94670 | -109.43964 | 35047 ft | 562 kts | 86° |
| 2026-05-04 22:04 | 34.95311 | -109.34474 | 35050 ft | 562 kts | 87° |
| 2026-05-04 22:04 | 34.95944 | -109.24977 | 35049 ft | 562 kts | 86° |
| 2026-05-04 22:05 | 34.96550 | -109.15479 | 35059 ft | 562 kts | 88° |
| 2026-05-04 22:05 | 34.96947 | -109.05980 | 35061 ft | 561 kts | 89° |
| 2026-05-04 22:06 | 34.97350 | -108.96474 | 35071 ft | 561 kts | 88° |
| 2026-05-04 22:06 | 34.97755 | -108.86965 | 35072 ft | 562 kts | 89° |
| 2026-05-04 22:07 | 34.98130 | -108.77453 | 35068 ft | 561 kts | 89° |
| 2026-05-04 22:07 | 34.98516 | -108.67940 | 35069 ft | 562 kts | 89° |
| 2026-05-04 22:08 | 34.98882 | -108.58425 | 35060 ft | 562 kts | 89° |
| 2026-05-04 22:08 | 34.99214 | -108.48906 | 35057 ft | 562 kts | 89° |
| 2026-05-04 22:09 | 34.99561 | -108.39396 | 35058 ft | 562 kts | 89° |
| 2026-05-04 22:09 | 34.99899 | -108.29874 | 35052 ft | 562 kts | 89° |
| 2026-05-04 22:10 | 35.00239 | -108.20340 | 35052 ft | 563 kts | 89° |
| 2026-05-04 22:10 | 35.00574 | -108.10801 | 35054 ft | 563 kts | 89° |
| 2026-05-04 22:11 | 35.00903 | -108.01266 | 35060 ft | 562 kts | 89° |
| 2026-05-04 22:11 | 35.01220 | -107.91735 | 35059 ft | 562 kts | 88° |
| 2026-05-04 22:12 | 35.01529 | -107.82217 | 35053 ft | 562 kts | 88° |
| 2026-05-04 22:12 | 35.01827 | -107.72747 | 35050 ft | 562 kts | 88° |
| 2026-05-04 22:13 | 35.02122 | -107.63221 | 35048 ft | 562 kts | 88° |
| 2026-05-04 22:13 | 35.02410 | -107.53691 | 35035 ft | 562 kts | 88° |
| 2026-05-04 22:14 | 35.02690 | -107.44164 | 35026 ft | 561 kts | 88° |
| 2026-05-04 22:14 | 35.02958 | -107.34647 | 35014 ft | 561 kts | 88° |
| 2026-05-04 22:15 | 35.03233 | -107.25140 | 35004 ft | 561 kts | 88° |
| 2026-05-04 22:15 | 35.03482 | -107.15621 | 34996 ft | 561 kts | 88° |
| 2026-05-04 22:16 | 35.03731 | -107.06102 | 35003 ft | 561 kts | 88° |
| 2026-05-04 22:16 | 35.03966 | -106.96590 | 35002 ft | 560 kts | 88° |
| 2026-05-04 22:17 | 35.04204 | -106.87095 | 34991 ft | 560 kts | 88° |
| 2026-05-04 22:17 | 35.03881 | -106.77625 | 34987 ft | 558 kts | 100° |
| 2026-05-04 22:18 | 35.02748 | -106.68252 | 34975 ft | 558 kts | 101° |
| 2026-05-04 22:18 | 35.01588 | -106.58890 | 34957 ft | 558 kts | 101° |
| 2026-05-04 22:19 | 35.00436 | -106.49539 | 34952 ft | 557 kts | 101° |
| 2026-05-04 22:19 | 34.99279 | -106.40184 | 34960 ft | 558 kts | 101° |
| 2026-05-04 22:20 | 34.98112 | -106.30839 | 34969 ft | 558 kts | 101° |
| 2026-05-04 22:20 | 34.96939 | -106.21501 | 34984 ft | 557 kts | 101° |
| 2026-05-04 22:21 | 34.95772 | -106.12230 | 35000 ft | 557 kts | 101° |
| 2026-05-04 22:21 | 34.94585 | -106.02895 | 35012 ft | 557 kts | 101° |
| 2026-05-04 22:22 | 34.93387 | -105.93577 | 35022 ft | 557 kts | 100° |
| 2026-05-04 22:22 | 34.92186 | -105.84236 | 35021 ft | 558 kts | 100° |
| 2026-05-04 22:23 | 34.90976 | -105.74899 | 35024 ft | 558 kts | 100° |
| 2026-05-04 22:23 | 34.89758 | -105.65550 | 35030 ft | 558 kts | 101° |
| 2026-05-04 22:24 | 34.88526 | -105.56218 | 35034 ft | 558 kts | 101° |
| 2026-05-04 22:24 | 34.87298 | -105.46872 | 35028 ft | 559 kts | 100° |
| 2026-05-04 22:25 | 34.86060 | -105.37531 | 35010 ft | 559 kts | 101° |
| 2026-05-04 22:25 | 34.84814 | -105.28181 | 34997 ft | 559 kts | 101° |
| 2026-05-04 22:26 | 34.83556 | -105.18846 | 34975 ft | 560 kts | 101° |
| 2026-05-04 22:26 | 34.82295 | -105.09546 | 34948 ft | 560 kts | 101° |
| 2026-05-04 22:27 | 34.81010 | -105.00199 | 34922 ft | 561 kts | 101° |
| 2026-05-04 22:27 | 34.79723 | -104.90828 | 34902 ft | 562 kts | 101° |
| 2026-05-04 22:28 | 34.78431 | -104.81462 | 34886 ft | 562 kts | 101° |
| 2026-05-04 22:28 | 34.77127 | -104.72088 | 34881 ft | 562 kts | 101° |
| 2026-05-04 22:29 | 34.75834 | -104.62699 | 34874 ft | 563 kts | 101° |
| 2026-05-04 22:29 | 34.74539 | -104.53311 | 34859 ft | 563 kts | 101° |
| 2026-05-04 22:30 | 34.73216 | -104.43941 | 34859 ft | 563 kts | 101° |
| 2026-05-04 22:30 | 34.71879 | -104.34561 | 34855 ft | 563 kts | 101° |
| 2026-05-04 22:31 | 34.70541 | -104.25174 | 34844 ft | 564 kts | 101° |
| 2026-05-04 22:31 | 34.69200 | -104.15780 | 34840 ft | 564 kts | 101° |
| 2026-05-04 22:32 | 34.67847 | -104.06459 | 34835 ft | 564 kts | 101° |
| 2026-05-04 22:32 | 34.66482 | -103.97084 | 34831 ft | 563 kts | 101° |
| 2026-05-04 22:33 | 34.65117 | -103.87706 | 34817 ft | 565 kts | 101° |
| 2026-05-04 22:33 | 34.63739 | -103.78306 | 34826 ft | 565 kts | 101° |
| 2026-05-04 22:34 | 34.62362 | -103.68903 | 34811 ft | 565 kts | 101° |
| 2026-05-04 22:34 | 34.60964 | -103.59516 | 34819 ft | 566 kts | 101° |
| 2026-05-04 22:35 | 34.59546 | -103.50122 | 34823 ft | 566 kts | 101° |
| 2026-05-04 22:35 | 34.58129 | -103.40723 | 34824 ft | 566 kts | 101° |
| 2026-05-04 22:36 | 34.56706 | -103.31335 | 34830 ft | 566 kts | 101° |
| 2026-05-04 22:36 | 34.55286 | -103.21934 | 34832 ft | 567 kts | 101° |
| 2026-05-04 22:37 | 34.53859 | -103.12519 | 34840 ft | 567 kts | 101° |
| 2026-05-04 22:37 | 34.52422 | -103.03116 | 34839 ft | 568 kts | 101° |
| 2026-05-04 22:38 | 34.50974 | -102.93760 | 34847 ft | 568 kts | 101° |
| 2026-05-04 22:38 | 34.49520 | -102.84332 | 34843 ft | 569 kts | 99° |
| 2026-05-04 22:39 | 34.48497 | -102.74826 | 34843 ft | 569 kts | 95° |
| 2026-05-04 22:39 | 34.47571 | -102.65284 | 34831 ft | 570 kts | 95° |
| 2026-05-04 22:40 | 34.46599 | -102.55756 | 34827 ft | 570 kts | 96° |
| 2026-05-04 22:40 | 34.45597 | -102.46233 | 34809 ft | 570 kts | 96° |
| 2026-05-04 22:41 | 34.44593 | -102.36706 | 34813 ft | 570 kts | 96° |
| 2026-05-04 22:41 | 34.43583 | -102.27164 | 34802 ft | 571 kts | 95° |
| 2026-05-04 22:42 | 34.42566 | -102.17634 | 34797 ft | 571 kts | 96° |
| 2026-05-04 22:42 | 34.41539 | -102.08097 | 34794 ft | 571 kts | 96° |
| 2026-05-04 22:43 | 34.40510 | -101.98575 | 34795 ft | 571 kts | 96° |
| 2026-05-04 22:43 | 34.39469 | -101.89043 | 34794 ft | 571 kts | 95° |
| 2026-05-04 22:44 | 34.38420 | -101.79506 | 34778 ft | 572 kts | 96° |
| 2026-05-04 22:44 | 34.37364 | -101.70028 | 34777 ft | 572 kts | 96° |
| 2026-05-04 22:45 | 34.36299 | -101.60493 | 34778 ft | 572 kts | 96° |
| 2026-05-04 22:45 | 34.34692 | -101.46201 | 34777 ft | 572 kts | 96° |
| 2026-05-04 22:46 | 34.33611 | -101.36669 | 34771 ft | 572 kts | 96° |
| 2026-05-04 22:46 | 34.32518 | -101.27145 | 34771 ft | 572 kts | 96° |
| 2026-05-04 22:47 | 34.31410 | -101.17605 | 34760 ft | 572 kts | 96° |
| 2026-05-04 22:47 | 34.30300 | -101.08075 | 34756 ft | 572 kts | 96° |
| 2026-05-04 22:48 | 34.29197 | -100.98552 | 34752 ft | 571 kts | 96° |
| 2026-05-04 22:48 | 34.28053 | -100.89034 | 34739 ft | 572 kts | 96° |
| 2026-05-04 22:49 | 34.26941 | -100.79517 | 34725 ft | 572 kts | 96° |
| 2026-05-04 22:49 | 34.25792 | -100.70013 | 34717 ft | 572 kts | 97° |
| 2026-05-04 22:50 | 34.24636 | -100.60511 | 34705 ft | 571 kts | 96° |
| 2026-05-04 22:50 | 34.23523 | -100.51012 | 34700 ft | 570 kts | 96° |
| 2026-05-04 22:51 | 34.22385 | -100.41532 | 34703 ft | 571 kts | 96° |
| 2026-05-04 22:51 | 34.21215 | -100.32044 | 34696 ft | 571 kts | 96° |
| 2026-05-04 22:52 | 34.19994 | -100.24215 | 34684 ft | 572 kts | 107° |
| 2026-05-04 22:52 | 34.16890 | -100.13713 | 34692 ft | 571 kts | 111° |
| 2026-05-04 22:53 | 34.14148 | -100.04721 | 34686 ft | 571 kts | 111° |
| 2026-05-04 22:53 | 34.11425 | -99.95726 | 34687 ft | 571 kts | 111° |
| 2026-05-04 22:54 | 34.09141 | -99.88191 | 34684 ft | 571 kts | 111° |
| 2026-05-04 22:54 | 34.06399 | -99.79202 | 34683 ft | 571 kts | 111° |
| 2026-05-04 22:55 | 34.03658 | -99.70217 | 34682 ft | 571 kts | 111° |
| 2026-05-04 22:55 | 34.00903 | -99.61239 | 34671 ft | 572 kts | 111° |
| 2026-05-04 22:56 | 33.98144 | -99.52251 | 34672 ft | 571 kts | 111° |
| 2026-05-04 22:56 | 33.95373 | -99.43292 | 34666 ft | 570 kts | 111° |
| 2026-05-04 22:57 | 33.92588 | -99.34363 | 34670 ft | 570 kts | 111° |
| 2026-05-04 22:57 | 33.89812 | -99.25433 | 34671 ft | 569 kts | 111° |
| 2026-05-04 22:58 | 33.87021 | -99.16516 | 34669 ft | 569 kts | 111° |
| 2026-05-04 22:58 | 33.85624 | -99.12063 | 34412 ft | 568 kts | 111° |
| 2026-05-04 22:58 | 33.84230 | -99.07629 | 33795 ft | 567 kts | 111° |
| 2026-05-04 22:59 | 33.82852 | -99.03241 | 32953 ft | 570 kts | 111° |
| 2026-05-04 22:59 | 33.81449 | -98.98781 | 32184 ft | 570 kts | 111° |
| 2026-05-04 22:59 | 33.80043 | -98.94331 | 31403 ft | 571 kts | 111° |
| 2026-05-04 22:59 | 33.78631 | -98.89866 | 30582 ft | 570 kts | 111° |
| 2026-05-04 23:00 | 33.77225 | -98.85418 | 29777 ft | 570 kts | 111° |
| 2026-05-04 23:00 | 33.75819 | -98.80976 | 29005 ft | 565 kts | 111° |
| 2026-05-04 23:00 | 33.74427 | -98.76582 | 28265 ft | 560 kts | 111° |
| 2026-05-04 23:00 | 33.73051 | -98.72248 | 27557 ft | 552 kts | 111° |
| 2026-05-04 23:01 | 33.71683 | -98.67983 | 26865 ft | 543 kts | 112° |
| 2026-05-04 23:01 | 33.70337 | -98.63801 | 26122 ft | 531 kts | 111° |
| 2026-05-04 23:01 | 33.69020 | -98.59711 | 25406 ft | 517 kts | 111° |
| 2026-05-04 23:01 | 33.67751 | -98.55718 | 24787 ft | 509 kts | 111° |
| 2026-05-04 23:02 | 33.66504 | -98.51772 | 24097 ft | 502 kts | 111° |
| 2026-05-04 23:02 | 33.65273 | -98.47875 | 23400 ft | 496 kts | 111° |
| 2026-05-04 23:02 | 33.64055 | -98.44034 | 22724 ft | 489 kts | 111° |
| 2026-05-04 23:02 | 33.62850 | -98.40247 | 22063 ft | 482 kts | 111° |
| 2026-05-04 23:03 | 33.61664 | -98.36516 | 21392 ft | 476 kts | 111° |
| 2026-05-04 23:03 | 33.60491 | -98.32829 | 20719 ft | 469 kts | 111° |
| 2026-05-04 23:03 | 33.59334 | -98.29197 | 20063 ft | 463 kts | 111° |
| 2026-05-04 23:03 | 33.58187 | -98.25616 | 19453 ft | 457 kts | 112° |
| 2026-05-04 23:04 | 33.57060 | -98.22094 | 18871 ft | 450 kts | 112° |
| 2026-05-04 23:04 | 33.55951 | -98.18616 | 18300 ft | 442 kts | 112° |
| 2026-05-04 23:04 | 33.54858 | -98.15209 | 17761 ft | 435 kts | 112° |
| 2026-05-04 23:04 | 33.53776 | -98.11856 | 17265 ft | 426 kts | 112° |
| 2026-05-04 23:05 | 33.52716 | -98.08580 | 16858 ft | 416 kts | 112° |
| 2026-05-04 23:05 | 33.51676 | -98.05363 | 16423 ft | 413 kts | 112° |
| 2026-05-04 23:05 | 33.50641 | -98.02161 | 15964 ft | 412 kts | 112° |
| 2026-05-04 23:05 | 33.49607 | -97.98966 | 15502 ft | 410 kts | 112° |
| 2026-05-04 23:06 | 33.48575 | -97.95785 | 15032 ft | 408 kts | 112° |
| 2026-05-04 23:06 | 33.47556 | -97.92643 | 14580 ft | 402 kts | 112° |
| 2026-05-04 23:06 | 33.46560 | -97.89571 | 14215 ft | 388 kts | 112° |
| 2026-05-04 23:06 | 33.45625 | -97.86655 | 13898 ft | 372 kts | 112° |
| 2026-05-04 23:07 | 33.44698 | -97.83758 | 13488 ft | 365 kts | 112° |
| 2026-05-04 23:07 | 33.43801 | -97.80977 | 13049 ft | 360 kts | 112° |
| 2026-05-04 23:07 | 33.42903 | -97.78190 | 12613 ft | 360 kts | 112° |
| 2026-05-04 23:07 | 33.42002 | -97.75390 | 12193 ft | 361 kts | 112° |
| 2026-05-04 23:08 | 33.41109 | -97.72614 | 11783 ft | 355 kts | 112° |
| 2026-05-04 23:08 | 33.40228 | -97.69885 | 11393 ft | 349 kts | 112° |
| 2026-05-04 23:08 | 33.39366 | -97.67223 | 11064 ft | 336 kts | 113° |
| 2026-05-04 23:08 | 33.38523 | -97.64676 | 10813 ft | 322 kts | 117° |
| 2026-05-04 23:09 | 33.37375 | -97.62431 | 10488 ft | 314 kts | 129° |
| 2026-05-04 23:09 | 33.36070 | -97.60338 | 10129 ft | 313 kts | 131° |
| 2026-05-04 23:09 | 33.34770 | -97.58271 | 9815 ft | 308 kts | 131° |
| 2026-05-04 23:09 | 33.33513 | -97.56255 | 9577 ft | 297 kts | 131° |
| 2026-05-04 23:10 | 33.32292 | -97.54282 | 9234 ft | 293 kts | 131° |
| 2026-05-04 23:10 | 33.31087 | -97.52331 | 8863 ft | 290 kts | 131° |
| 2026-05-04 23:10 | 33.29900 | -97.50407 | 8504 ft | 285 kts | 131° |
| 2026-05-04 23:10 | 33.28747 | -97.48532 | 8273 ft | 274 kts | 131° |
| 2026-05-04 23:11 | 33.27641 | -97.46737 | 8074 ft | 262 kts | 133° |
| 2026-05-04 23:11 | 33.26445 | -97.45169 | 7736 ft | 251 kts | 143° |
| 2026-05-04 23:11 | 33.25151 | -97.43805 | 7410 ft | 244 kts | 144° |
| 2026-05-04 23:11 | 33.23909 | -97.42519 | 6999 ft | 229 kts | 145° |
| 2026-05-04 23:12 | 33.22754 | -97.41318 | 6609 ft | 215 kts | 145° |
| 2026-05-04 23:12 | 33.21637 | -97.40158 | 6011 ft | 211 kts | 145° |
| 2026-05-04 23:12 | 33.20571 | -97.39044 | 5648 ft | 198 kts | 145° |
| 2026-05-04 23:12 | 33.19542 | -97.37968 | 5207 ft | 197 kts | 145° |
| 2026-05-04 23:13 | 33.18622 | -97.36735 | 5007 ft | 205 kts | 127° |
| 2026-05-04 23:13 | 33.17946 | -97.35233 | 4987 ft | 206 kts | 124° |
| 2026-05-04 23:13 | 33.17273 | -97.33724 | 4988 ft | 206 kts | 125° |
| 2026-05-04 23:13 | 33.16602 | -97.32218 | 4991 ft | 205 kts | 125° |
| 2026-05-04 23:14 | 33.15805 | -97.30896 | 4611 ft | 191 kts | 149° |
| 2026-05-04 23:14 | 33.14611 | -97.30332 | 4142 ft | 183 kts | 169° |
| 2026-05-04 23:14 | 33.13399 | -97.29889 | 3667 ft | 183 kts | 165° |
| 2026-05-04 23:14 | 33.12247 | -97.29293 | 3311 ft | 177 kts | 159° |
| 2026-05-04 23:15 | 33.11179 | -97.28570 | 3032 ft | 176 kts | 154° |
| 2026-05-04 23:15 | 33.10163 | -97.27758 | 2978 ft | 176 kts | 150° |
| 2026-05-04 23:15 | 33.09179 | -97.26888 | 2981 ft | 176 kts | 148° |
| 2026-05-04 23:15 | 33.08213 | -97.25979 | 2982 ft | 177 kts | 147° |
| 2026-05-04 23:16 | 33.07259 | -97.25045 | 2984 ft | 179 kts | 147° |
| 2026-05-04 23:16 | 33.06276 | -97.24120 | 2995 ft | 180 kts | 146° |
| 2026-05-04 23:16 | 33.05322 | -97.23146 | 2985 ft | 181 kts | 145° |
| 2026-05-04 23:16 | 33.04372 | -97.22167 | 2987 ft | 181 kts | 145° |
| 2026-05-04 23:17 | 33.03424 | -97.21186 | 2986 ft | 180 kts | 146° |
| 2026-05-04 23:17 | 33.02485 | -97.20215 | 2983 ft | 178 kts | 145° |
| 2026-05-04 23:17 | 33.01550 | -97.19249 | 2982 ft | 179 kts | 145° |
| 2026-05-04 23:17 | 33.00609 | -97.18275 | 3008 ft | 179 kts | 144° |